Time;durP1;ratioP1;P1;durP2;ratioP2;P2;SDS_P1;SDS_P2;PMS_P1;PMS_P2;Temp;Humidity;BMP_temperature;BMP_pressure;BME280_temperature;BME280_humidity;BME280_pressure;Samples;Min_cycle;Max_cycle;Signal;HPM_P1;HPM_P2
2023/07/31 00:00:05;;;;;;;4.10;1.93;;;13.10;99.90;;;;;;5056296;28;20227;-80
2023/07/31 00:02:31;;;;;;;3.97;1.93;;;13.00;99.90;;;;;;5056677;28;20307;-80
2023/07/31 00:04:58;;;;;;;3.43;1.77;;;13.10;99.90;;;;;;5062036;28;20216;-79
2023/07/31 00:07:26;;;;;;;7.27;2.20;;;13.10;99.90;;;;;;5067208;28;20318;-79
2023/07/31 00:09:54;;;;;;;3.90;1.73;;;13.10;99.90;;;;;;5068188;28;20230;-80
2023/07/31 00:12:20;;;;;;;4.37;2.00;;;13.10;99.90;;;;;;5061248;28;20226;-80
2023/07/31 00:14:47;;;;;;;5.00;2.10;;;13.10;99.90;;;;;;5067937;28;20220;-79
2023/07/31 00:17:14;;;;;;;5.60;2.17;;;13.10;99.90;;;;;;5064681;28;20216;-79
2023/07/31 00:19:40;;;;;;;3.53;1.97;;;13.10;99.90;;;;;;5066899;28;20226;-79
2023/07/31 00:22:07;;;;;;;5.03;2.33;;;13.10;99.90;;;;;;5066105;28;20241;-80
2023/07/31 00:24:35;;;;;;;4.50;1.80;;;13.20;99.90;;;;;;5087839;28;20225;-80
2023/07/31 00:27:02;;;;;;;8.17;2.70;;;13.20;99.90;;;;;;5069156;28;20232;-80
2023/07/31 00:29:28;;;;;;;3.70;1.90;;;13.20;99.90;;;;;;5070212;28;20765;-80
2023/07/31 00:31:55;;;;;;;5.23;2.17;;;13.20;99.90;;;;;;5061510;28;20240;-80
2023/07/31 00:34:22;;;;;;;6.37;2.13;;;13.20;99.90;;;;;;5062819;28;20358;-79
2023/07/31 00:36:49;;;;;;;3.97;1.90;;;13.20;99.90;;;;;;5060775;28;20228;-79
2023/07/31 00:39:17;;;;;;;5.87;2.20;;;13.20;99.90;;;;;;5061593;28;20252;-78
2023/07/31 00:41:46;;;;;;;6.07;1.80;;;13.20;99.90;;;;;;5072069;28;20246;-78
2023/07/31 00:44:13;;;;;;;6.57;2.00;;;13.30;99.90;;;;;;5072684;28;20318;-78
2023/07/31 00:46:40;;;;;;;4.70;2.13;;;13.30;99.90;;;;;;5070443;28;20312;-78
2023/07/31 00:49:07;;;;;;;6.97;1.87;;;13.30;99.90;;;;;;5072247;28;20224;-78
2023/07/31 00:51:34;;;;;;;8.47;2.30;;;13.30;99.90;;;;;;5071549;28;20242;-79
2023/07/31 00:54:01;;;;;;;6.03;2.27;;;13.30;99.90;;;;;;5071197;28;20225;-79
2023/07/31 00:56:29;;;;;;;6.70;1.90;;;13.30;99.90;;;;;;5066114;28;20325;-79
2023/07/31 00:58:57;;;;;;;6.20;2.30;;;13.30;99.90;;;;;;5075783;28;20226;-79
2023/07/31 01:01:24;;;;;;;4.93;2.50;;;13.30;99.90;;;;;;5076497;28;20306;-79
2023/07/31 01:03:53;;;;;;;6.80;1.93;;;13.30;99.90;;;;;;5072679;28;20223;-79
2023/07/31 01:06:31;;;;;;;4.17;1.83;;;13.30;99.90;;;;;;5072435;28;20306;-79
2023/07/31 01:09:03;;;;;;;6.77;2.00;;;13.30;99.90;;;;;;5075828;28;20265;-79
2023/07/31 01:11:31;;;;;;;4.43;1.80;;;13.30;99.90;;;;;;5066701;28;20224;-79
2023/07/31 01:14:00;;;;;;;6.77;2.10;;;13.20;99.90;;;;;;5063232;28;20220;-79
2023/07/31 01:16:27;;;;;;;5.20;2.27;;;13.20;99.90;;;;;;5057664;28;20231;-79
2023/07/31 01:18:54;;;;;;;5.50;2.10;;;13.20;99.90;;;;;;5067278;28;20310;-80
2023/07/31 01:21:49;;;;;;;7.40;1.90;;;13.20;99.90;;;;;;5058759;28;20218;-80
2023/07/31 01:24:23;;;;;;;4.47;1.87;;;13.20;99.90;;;;;;5062850;28;20222;-80
2023/07/31 01:26:57;;;;;;;3.70;1.87;;;13.10;99.90;;;;;;5062886;28;20216;-79
2023/07/31 01:29:33;;;;;;;4.93;2.00;;;13.10;99.90;;;;;;5066986;28;20229;-80
2023/07/31 01:32:03;;;;;;;6.53;2.23;;;13.10;99.90;;;;;;5064847;28;20226;-80
2023/07/31 01:34:32;;;;;;;4.07;2.00;;;13.10;99.90;;;;;;5059746;28;20293;-79
2023/07/31 01:36:59;;;;;;;6.70;2.17;;;13.00;99.90;;;;;;5063274;28;20217;-79
2023/07/31 01:39:26;;;;;;;7.00;2.00;;;13.00;99.90;;;;;;5065359;28;20249;-79
2023/07/31 01:41:54;;;;;;;6.83;2.20;;;13.00;99.90;;;;;;5059246;28;20227;-79
2023/07/31 01:44:21;;;;;;;9.10;2.17;;;12.90;99.90;;;;;;5064167;28;20218;-78
2023/07/31 01:46:48;;;;;;;3.73;2.20;;;13.00;99.90;;;;;;5062051;28;20989;-79
2023/07/31 01:49:15;;;;;;;9.37;2.50;;;13.00;99.90;;;;;;5077284;28;20212;-79
2023/07/31 01:51:42;;;;;;;7.03;2.17;;;12.90;99.90;;;;;;5063597;28;20226;-79
2023/07/31 01:54:09;;;;;;;4.43;2.00;;;12.90;99.90;;;;;;5068757;28;20652;-78
2023/07/31 01:56:36;;;;;;;7.70;2.53;;;12.90;99.90;;;;;;5076703;28;20737;-78
2023/07/31 01:59:04;;;;;;;5.83;2.50;;;12.90;99.90;;;;;;5069219;28;20259;-78
2023/07/31 02:01:31;;;;;;;8.07;2.13;;;13.00;99.90;;;;;;5059224;28;20306;-79
2023/07/31 02:03:59;;;;;;;5.07;2.30;;;13.00;99.90;;;;;;5068812;28;20233;-81
2023/07/31 02:06:25;;;;;;;4.50;2.03;;;13.00;99.90;;;;;;5063364;28;20733;-80
2023/07/31 02:08:52;;;;;;;7.23;2.63;;;13.00;99.90;;;;;;5066304;28;20296;-80
2023/07/31 02:11:19;;;;;;;5.23;2.10;;;13.00;99.90;;;;;;5057806;28;20215;-80
2023/07/31 02:13:46;;;;;;;4.17;2.50;;;13.10;99.90;;;;;;5068836;28;20234;-79
2023/07/31 02:16:14;;;;;;;4.87;2.57;;;13.10;99.90;;;;;;5064760;28;20223;-78
2023/07/31 02:18:41;;;;;;;4.17;2.10;;;13.10;99.90;;;;;;5057142;28;20263;-80
2023/07/31 02:21:08;;;;;;;7.03;2.30;;;13.10;99.90;;;;;;5061295;28;20352;-80
2023/07/31 02:23:35;;;;;;;7.07;2.77;;;13.10;99.90;;;;;;5061288;28;20752;-81
2023/07/31 02:26:01;;;;;;;5.30;2.20;;;13.20;99.90;;;;;;5062524;28;20241;-80
2023/07/31 02:28:28;;;;;;;8.40;2.73;;;13.20;99.90;;;;;;5056028;28;20336;-79
2023/07/31 02:30:55;;;;;;;4.03;2.43;;;13.20;99.90;;;;;;5061855;28;20259;-79
2023/07/31 02:33:23;;;;;;;7.50;2.33;;;13.20;99.90;;;;;;5062373;28;20232;-79
2023/07/31 02:35:49;;;;;;;4.77;2.17;;;13.20;99.90;;;;;;5083045;28;20303;-79
2023/07/31 02:38:16;;;;;;;5.70;2.37;;;13.30;99.90;;;;;;5069983;28;20227;-80
2023/07/31 02:40:43;;;;;;;6.40;2.40;;;13.30;99.90;;;;;;5064331;28;21089;-80
2023/07/31 02:43:10;;;;;;;7.93;2.77;;;13.30;99.90;;;;;;5075246;28;20224;-79
2023/07/31 02:45:37;;;;;;;4.70;2.40;;;13.30;99.90;;;;;;5064777;28;21713;-79
2023/07/31 02:48:04;;;;;;;4.33;2.30;;;13.30;99.90;;;;;;5066608;28;20305;-79
2023/07/31 02:50:33;;;;;;;3.90;2.13;;;13.30;99.90;;;;;;5065339;28;20582;-79
2023/07/31 02:53:00;;;;;;;6.07;2.20;;;13.40;99.90;;;;;;5059506;28;20223;-80
2023/07/31 02:55:27;;;;;;;5.87;2.80;;;13.40;99.90;;;;;;5064075;28;20284;-78
2023/07/31 02:57:54;;;;;;;5.70;2.70;;;13.40;99.90;;;;;;5056469;28;21174;-80
2023/07/31 03:00:22;;;;;;;7.00;2.90;;;13.40;99.90;;;;;;5065031;28;20225;-79
2023/07/31 03:02:49;;;;;;;7.53;2.57;;;13.40;99.90;;;;;;5064213;28;20224;-79
2023/07/31 03:05:16;;;;;;;6.53;2.47;;;13.50;99.90;;;;;;5059980;28;20230;-80
2023/07/31 03:07:44;;;;;;;6.20;2.87;;;13.50;99.90;;;;;;5065091;28;20715;-79
2023/07/31 03:10:11;;;;;;;8.17;2.57;;;13.50;99.90;;;;;;5077513;28;20227;-79
2023/07/31 03:12:38;;;;;;;5.57;2.63;;;13.50;99.90;;;;;;5068380;28;20231;-79
2023/07/31 03:15:06;;;;;;;8.10;2.97;;;13.50;99.90;;;;;;5058544;28;20221;-79
2023/07/31 03:17:32;;;;;;;6.67;2.37;;;13.50;99.90;;;;;;5053464;28;20289;-79
2023/07/31 03:19:59;;;;;;;5.23;2.60;;;13.50;99.90;;;;;;5063545;28;20230;-79
2023/07/31 03:22:26;;;;;;;8.40;2.83;;;13.50;99.90;;;;;;5082592;28;20222;-78
2023/07/31 03:24:54;;;;;;;6.03;2.80;;;13.50;99.90;;;;;;5057991;28;20305;-79
2023/07/31 03:27:21;;;;;;;8.73;3.13;;;13.50;99.90;;;;;;5069104;28;20259;-78
2023/07/31 03:29:49;;;;;;;6.27;3.10;;;13.50;99.90;;;;;;5061674;28;20306;-79
2023/07/31 03:32:17;;;;;;;9.03;3.10;;;13.50;99.90;;;;;;5054031;28;20223;-78
2023/07/31 03:34:43;;;;;;;7.53;2.90;;;13.50;99.90;;;;;;5070109;28;20240;-79
2023/07/31 03:37:10;;;;;;;7.57;2.83;;;13.50;99.90;;;;;;5072775;28;20230;-78
2023/07/31 03:39:37;;;;;;;7.07;2.57;;;13.50;99.90;;;;;;5081023;28;20233;-78
2023/07/31 03:42:05;;;;;;;8.27;2.77;;;13.50;99.90;;;;;;5075710;28;20231;-79
2023/07/31 03:44:32;;;;;;;6.97;2.67;;;13.60;99.90;;;;;;5061048;28;20221;-81
2023/07/31 03:46:59;;;;;;;6.03;2.97;;;13.60;99.90;;;;;;5068708;28;20633;-80
2023/07/31 03:49:26;;;;;;;9.53;3.03;;;13.60;99.90;;;;;;5072035;28;20307;-78
2023/07/31 03:51:53;;;;;;;5.50;2.87;;;13.60;99.90;;;;;;5059444;28;20224;-79
2023/07/31 03:54:19;;;;;;;3.77;2.60;;;13.70;99.90;;;;;;5072545;28;20629;-79
2023/07/31 03:56:46;;;;;;;5.03;2.43;;;13.70;99.90;;;;;;5062677;28;20646;-79
2023/07/31 03:59:14;;;;;;;6.27;3.07;;;13.70;99.90;;;;;;5069809;28;20229;-79
2023/07/31 04:01:41;;;;;;;4.33;2.70;;;13.70;99.90;;;;;;5065183;28;20217;-79
2023/07/31 04:04:08;;;;;;;7.20;3.10;;;13.70;99.90;;;;;;5071613;28;20704;-79
2023/07/31 04:06:35;;;;;;;5.17;2.80;;;13.80;99.90;;;;;;5064242;28;20730;-80
2023/07/31 04:09:02;;;;;;;5.10;2.83;;;13.80;99.90;;;;;;5066998;28;20227;-80
2023/07/31 04:11:29;;;;;;;4.73;2.77;;;13.90;99.90;;;;;;5060259;28;20636;-80
2023/07/31 04:13:56;;;;;;;4.63;3.30;;;13.90;99.90;;;;;;5069136;28;20312;-79
2023/07/31 04:16:23;;;;;;;6.53;2.83;;;13.90;99.90;;;;;;5066348;28;20307;-80
2023/07/31 04:18:50;;;;;;;5.10;3.00;;;13.90;99.90;;;;;;5066831;28;20235;-79
2023/07/31 04:21:17;;;;;;;7.47;3.07;;;13.90;99.90;;;;;;5063788;28;20231;-79
2023/07/31 04:23:44;;;;;;;6.37;2.83;;;14.00;99.90;;;;;;5067367;28;20233;-80
2023/07/31 04:26:10;;;;;;;6.43;3.27;;;14.00;99.90;;;;;;5058561;28;20695;-79
2023/07/31 04:28:37;;;;;;;5.50;3.20;;;14.00;99.90;;;;;;5064680;28;20650;-80
2023/07/31 04:31:04;;;;;;;6.00;3.00;;;14.10;99.90;;;;;;5057867;28;20236;-79
2023/07/31 04:33:32;;;;;;;5.40;3.00;;;14.00;99.90;;;;;;5071977;28;20229;-79
2023/07/31 04:36:00;;;;;;;4.60;3.53;;;14.10;99.90;;;;;;5066267;28;20233;-79
2023/07/31 04:38:27;;;;;;;3.33;2.80;;;14.20;99.90;;;;;;5074485;22;20214;-77
2023/07/31 04:40:53;;;;;;;5.00;2.93;;;14.10;99.90;;;;;;5041237;28;20220;-77
2023/07/31 04:43:20;;;;;;;6.07;2.97;;;14.10;99.90;;;;;;5049745;28;20232;-80
2023/07/31 04:45:48;;;;;;;8.10;2.90;;;14.20;99.90;;;;;;5061438;28;20229;-78
2023/07/31 04:48:15;;;;;;;4.63;3.00;;;14.20;99.90;;;;;;5044005;28;20235;-81
2023/07/31 04:50:43;;;;;;;3.60;2.77;;;14.20;99.90;;;;;;5047318;28;20221;-81
2023/07/31 04:53:09;;;;;;;5.37;2.93;;;14.20;99.90;;;;;;5042013;28;20236;-81
2023/07/31 04:55:36;;;;;;;5.07;3.03;;;14.20;99.90;;;;;;5045017;28;20252;-82
2023/07/31 04:58:03;;;;;;;5.43;2.83;;;14.20;99.90;;;;;;5053034;28;20925;-80
2023/07/31 05:00:30;;;;;;;4.90;2.73;;;14.20;99.90;;;;;;5065671;28;21227;-82
2023/07/31 05:02:57;;;;;;;4.53;2.73;;;14.20;99.90;;;;;;5040285;28;20226;-82
2023/07/31 05:05:24;;;;;;;4.70;2.67;;;14.20;99.90;;;;;;5042938;28;20273;-82
2023/07/31 05:07:53;;;;;;;5.73;2.93;;;14.20;99.90;;;;;;5062389;28;20347;-82
2023/07/31 05:10:20;;;;;;;4.63;2.50;;;14.30;99.90;;;;;;5045089;28;20523;-81
2023/07/31 05:12:47;;;;;;;3.00;2.70;;;14.30;99.90;;;;;;5062602;28;20221;-82
2023/07/31 05:15:14;;;;;;;3.70;2.40;;;14.30;99.90;;;;;;5045841;28;20232;-81
2023/07/31 05:17:41;;;;;;;5.10;2.70;;;14.30;99.90;;;;;;5044160;28;20343;-82
2023/07/31 05:20:09;;;;;;;5.07;2.70;;;14.30;99.90;;;;;;5062149;28;20326;-81
2023/07/31 05:22:36;;;;;;;3.50;2.47;;;14.30;99.90;;;;;;5044324;28;20226;-83
2023/07/31 05:25:05;;;;;;;5.37;2.87;;;14.30;99.90;;;;;;5047494;28;20244;-81
2023/07/31 05:27:33;;;;;;;3.23;2.90;;;14.30;99.90;;;;;;5062209;28;20248;-82
2023/07/31 05:30:00;;;;;;;2.90;2.60;;;14.30;99.90;;;;;;5045274;28;20230;-83
2023/07/31 05:32:27;;;;;;;4.27;2.80;;;14.30;99.90;;;;;;5049847;28;20709;-82
2023/07/31 05:34:54;;;;;;;3.57;2.50;;;14.40;99.90;;;;;;5042992;28;20222;-81
2023/07/31 05:37:23;;;;;;;3.30;2.80;;;14.30;99.90;;;;;;5044567;28;20217;-80
2023/07/31 05:39:50;;;;;;;3.57;2.80;;;14.30;99.90;;;;;;5061668;28;20309;-80
2023/07/31 05:42:18;;;;;;;4.83;2.50;;;14.30;99.90;;;;;;5042469;28;20279;-82
2023/07/31 05:44:48;;;;;;;4.17;2.70;;;14.30;99.90;;;;;;5047916;28;20827;-80
2023/07/31 05:47:15;;;;;;;3.27;2.50;;;14.40;99.90;;;;;;5058999;28;20257;-81
2023/07/31 05:49:42;;;;;;;4.30;2.73;;;14.40;99.90;;;;;;5059027;28;20232;-83
2023/07/31 05:52:09;;;;;;;3.33;2.70;;;14.40;99.90;;;;;;5045997;28;20215;-83
2023/07/31 05:54:36;;;;;;;3.53;2.43;;;14.50;99.90;;;;;;5059627;28;20992;-81
2023/07/31 05:57:02;;;;;;;3.23;2.67;;;14.50;99.90;;;;;;5040239;28;20238;-80
2023/07/31 05:59:32;;;;;;;4.17;2.70;;;14.50;99.90;;;;;;5058131;28;20269;-82
2023/07/31 06:01:59;;;;;;;4.67;2.60;;;14.50;99.90;;;;;;5044362;28;21012;-80
2023/07/31 06:04:26;;;;;;;6.33;2.73;;;14.50;99.90;;;;;;5036682;28;20226;-82
2023/07/31 06:06:53;;;;;;;2.50;2.30;;;14.60;99.90;;;;;;5038703;28;20310;-83
2023/07/31 06:09:20;;;;;;;2.70;2.50;;;14.60;99.90;;;;;;5056630;28;20242;-83
2023/07/31 06:11:47;;;;;;;4.47;2.90;;;14.60;99.90;;;;;;5045677;28;20230;-80
2023/07/31 06:14:13;;;;;;;3.23;2.60;;;14.70;99.90;;;;;;5040278;28;20798;-82
2023/07/31 06:16:42;;;;;;;5.13;2.77;;;14.70;99.90;;;;;;5045606;28;20330;-82
2023/07/31 06:19:08;;;;;;;3.97;2.30;;;14.70;99.90;;;;;;5048643;28;20226;-82
2023/07/31 06:21:37;;;;;;;3.00;2.60;;;14.80;99.90;;;;;;5066544;28;20486;-81
2023/07/31 06:24:04;;;;;;;4.70;2.30;;;14.80;99.90;;;;;;5063427;28;20288;-82
2023/07/31 06:26:30;;;;;;;2.23;2.03;;;14.90;99.90;;;;;;5043899;28;20609;-82
2023/07/31 06:28:57;;;;;;;2.57;2.17;;;14.90;99.90;;;;;;5046774;28;20257;-82
2023/07/31 06:31:24;;;;;;;3.40;2.27;;;15.00;99.90;;;;;;5045507;28;20239;-82
2023/07/31 06:33:53;;;;;;;3.87;2.20;;;14.90;99.90;;;;;;5064751;28;20225;-83
2023/07/31 06:36:20;;;;;;;3.50;2.33;;;15.00;99.90;;;;;;5048312;28;20479;-82
2023/07/31 06:38:46;;;;;;;3.20;2.20;;;15.00;99.90;;;;;;5046033;28;20312;-82
2023/07/31 06:41:13;;;;;;;2.97;2.60;;;15.00;99.90;;;;;;5063209;28;20235;-82
2023/07/31 06:43:40;;;;;;;4.30;2.73;;;15.00;99.90;;;;;;5046213;28;20221;-80
2023/07/31 06:46:08;;;;;;;2.60;2.13;;;15.00;99.90;;;;;;5040863;28;20252;-81
2023/07/31 06:48:36;;;;;;;3.83;3.43;;;15.00;99.90;;;;;;5060388;28;20613;-83
2023/07/31 06:51:04;;;;;;;2.67;2.37;;;15.00;99.90;;;;;;5058373;28;20307;-82
2023/07/31 06:53:31;;;;;;;3.73;2.50;;;15.00;99.90;;;;;;5063282;28;20320;-82
2023/07/31 06:55:58;;;;;;;3.07;2.70;;;15.00;99.90;;;;;;5047070;28;20226;-80
2023/07/31 06:58:24;;;;;;;4.53;2.50;;;15.10;99.90;;;;;;5041837;28;20307;-82
2023/07/31 07:00:51;;;;;;;5.23;3.00;;;15.10;99.90;;;;;;5057181;28;20282;-80
2023/07/31 07:07:06;;;;;;;3.63;2.50;;;15.10;99.90;;;;;;5054963;28;20241;-80
2023/07/31 07:09:33;;;;;;;5.47;2.60;;;15.20;99.90;;;;;;5040547;28;20314;-81
2023/07/31 07:11:59;;;;;;;8.87;2.60;;;15.20;99.90;;;;;;5039463;28;20315;-81
2023/07/31 07:14:26;;;;;;;5.40;2.87;;;15.20;99.90;;;;;;5045831;28;20249;-79
2023/07/31 07:16:53;;;;;;;3.40;2.30;;;15.20;99.90;;;;;;5041424;28;20640;-82
2023/07/31 07:19:20;;;;;;;3.27;2.53;;;15.30;99.90;;;;;;5044109;28;20314;-83
2023/07/31 07:21:46;;;;;;;4.30;2.67;;;15.20;99.90;;;;;;5059615;28;20226;-82
2023/07/31 07:24:14;;;;;;;3.07;2.37;;;15.20;99.90;;;;;;5065105;28;20232;-80
2023/07/31 07:26:43;;;;;;;3.73;2.30;;;15.30;99.90;;;;;;5063281;28;20238;-80
2023/07/31 07:29:10;;;;;;;3.30;2.60;;;15.30;99.90;;;;;;5060026;28;20229;-79
2023/07/31 07:31:37;;;;;;;2.33;2.13;;;15.30;99.90;;;;;;5058072;28;20273;-79
2023/07/31 07:34:04;;;;;;;3.87;2.43;;;15.30;99.90;;;;;;5047587;28;20233;-79
2023/07/31 07:36:32;;;;;;;3.40;2.53;;;15.30;99.90;;;;;;5038584;28;20242;-80
2023/07/31 07:38:59;;;;;;;2.73;2.53;;;15.30;99.90;;;;;;5038683;28;20230;-80
2023/07/31 07:41:27;;;;;;;4.53;3.10;;;15.30;99.90;;;;;;5043058;28;20231;-81
2023/07/31 07:43:53;;;;;;;4.33;2.97;;;15.40;99.90;;;;;;5040279;28;20223;-81
2023/07/31 07:46:20;;;;;;;6.93;3.10;;;15.30;99.90;;;;;;5062550;28;20221;-81
2023/07/31 07:48:47;;;;;;;5.50;2.70;;;15.40;99.90;;;;;;5043576;28;20317;-78
2023/07/31 07:51:13;;;;;;;3.03;2.07;;;15.40;99.90;;;;;;5054232;28;20618;-77
2023/07/31 07:53:40;;;;;;;2.87;1.70;;;15.40;99.90;;;;;;5044863;28;20236;-77
2023/07/31 07:56:07;;;;;;;3.20;1.57;;;15.30;99.90;;;;;;5040754;28;20316;-77
2023/07/31 07:58:37;;;;;;;3.23;1.50;;;15.30;99.90;;;;;;5060603;28;20236;-77
2023/07/31 08:01:04;;;;;;;3.67;1.73;;;15.20;99.90;;;;;;5040914;28;20235;-77
2023/07/31 08:03:30;;;;;;;3.50;1.60;;;15.20;99.90;;;;;;5034655;28;20519;-77
2023/07/31 08:05:59;;;;;;;1.67;1.57;;;15.20;99.90;;;;;;5041806;28;20272;-77
2023/07/31 08:08:26;;;;;;;2.20;1.60;;;15.20;99.90;;;;;;5054026;28;20230;-77
2023/07/31 08:10:52;;;;;;;3.20;1.90;;;15.20;99.90;;;;;;5041318;28;20230;-77
2023/07/31 08:13:19;;;;;;;3.17;1.70;;;15.20;99.90;;;;;;5058220;28;20309;-77
2023/07/31 08:15:47;;;;;;;1.70;1.60;;;15.20;99.90;;;;;;5044657;28;20222;-77
2023/07/31 08:18:14;;;;;;;1.77;1.67;;;15.20;99.90;;;;;;5052847;28;20234;-77
2023/07/31 08:20:43;;;;;;;2.57;1.80;;;15.30;99.90;;;;;;5061959;28;20724;-76
2023/07/31 08:23:10;;;;;;;1.93;1.50;;;15.30;99.90;;;;;;5060565;28;20715;-77
2023/07/31 08:25:37;;;;;;;2.27;1.90;;;15.30;99.90;;;;;;5057340;28;20245;-77
2023/07/31 08:28:04;;;;;;;2.40;1.73;;;15.40;99.90;;;;;;5058218;28;20230;-77
2023/07/31 08:30:31;;;;;;;2.10;1.90;;;15.50;99.90;;;;;;5041168;28;20233;-77
2023/07/31 08:32:59;;;;;;;2.80;2.00;;;15.50;99.90;;;;;;5037642;28;20219;-76
2023/07/31 08:35:27;;;;;;;2.10;1.90;;;15.60;99.90;;;;;;5042176;28;20232;-76
2023/07/31 08:37:54;;;;;;;2.97;2.00;;;15.60;99.90;;;;;;5040323;28;20226;-76
2023/07/31 08:40:21;;;;;;;1.80;1.70;;;15.70;99.90;;;;;;5039156;28;20460;-77
2023/07/31 08:42:50;;;;;;;2.00;1.60;;;15.70;99.90;;;;;;5039794;28;20672;-76
2023/07/31 08:45:18;;;;;;;1.93;1.80;;;15.70;99.90;;;;;;5057234;28;20230;-77
2023/07/31 08:47:46;;;;;;;1.90;1.70;;;15.80;99.90;;;;;;5044534;28;20234;-77
2023/07/31 08:50:16;;;;;;;1.83;1.47;;;15.80;99.90;;;;;;5054193;28;20307;-77
2023/07/31 08:52:42;;;;;;;2.13;1.53;;;15.80;99.90;;;;;;5057700;28;20507;-77
2023/07/31 08:55:10;;;;;;;1.60;1.37;;;15.90;99.90;;;;;;5037541;28;20703;-78
2023/07/31 08:57:39;;;;;;;1.67;1.57;;;15.90;99.90;;;;;;5035743;28;20227;-77
2023/07/31 09:00:10;;;;;;;1.77;1.30;;;15.90;99.90;;;;;;5059781;28;20227;-78
2023/07/31 09:02:43;;;;;;;1.23;1.13;;;15.90;99.90;;;;;;5055512;28;20224;-78
2023/07/31 09:05:11;;;;;;;1.63;1.53;;;15.90;99.90;;;;;;5039879;28;20242;-78
2023/07/31 09:07:41;;;;;;;1.77;1.53;;;15.90;99.90;;;;;;5064579;28;20704;-77
2023/07/31 09:10:08;;;;;;;2.03;1.70;;;16.00;99.90;;;;;;5041821;28;20218;-77
2023/07/31 09:12:36;;;;;;;1.70;1.60;;;15.90;99.90;;;;;;5055468;28;20223;-77
2023/07/31 09:15:03;;;;;;;1.50;1.40;;;16.00;99.90;;;;;;5044054;28;20227;-76
2023/07/31 09:17:31;;;;;;;2.07;1.60;;;16.00;99.90;;;;;;5051250;28;20241;-77
2023/07/31 09:19:58;;;;;;;1.73;1.40;;;16.00;99.90;;;;;;5059275;28;20681;-81
2023/07/31 09:22:33;;;;;;;1.50;1.40;;;16.00;99.90;;;;;;5042730;28;20599;-79
2023/07/31 09:25:16;;;;;;;2.17;1.43;;;16.10;99.90;;;;;;5047583;28;20473;-78
2023/07/31 09:27:48;;;;;;;1.90;1.20;;;16.10;99.90;;;;;;5044682;28;20280;-79
2023/07/31 09:30:18;;;;;;;1.77;1.30;;;16.10;99.90;;;;;;5044202;28;20226;-80
2023/07/31 09:32:46;;;;;;;1.60;1.50;;;16.20;99.90;;;;;;5057436;28;20730;-81
2023/07/31 09:35:20;;;;;;;1.77;1.50;;;16.20;99.90;;;;;;5046425;28;20289;-79
2023/07/31 09:37:50;;;;;;;2.63;1.27;;;16.20;99.90;;;;;;5057616;28;20288;-80
2023/07/31 09:40:28;;;;;;;2.00;1.10;;;16.20;99.90;;;;;;5060134;28;20222;-80
2023/07/31 09:42:57;;;;;;;2.03;1.20;;;16.20;99.90;;;;;;5042560;28;20667;-78
2023/07/31 09:45:24;;;;;;;1.40;1.20;;;16.20;99.90;;;;;;5042907;28;20232;-79
2023/07/31 09:47:51;;;;;;;3.13;1.20;;;16.20;99.90;;;;;;5039968;28;20223;-79
2023/07/31 09:50:18;;;;;;;2.27;1.00;;;16.30;99.90;;;;;;5061408;28;20220;-78
2023/07/31 09:52:45;;;;;;;1.60;1.50;;;16.30;99.90;;;;;;5063399;28;21041;-81
2023/07/31 09:55:12;;;;;;;1.60;1.23;;;16.40;99.90;;;;;;5043834;28;20223;-76
2023/07/31 09:57:42;;;;;;;1.50;1.30;;;16.40;99.90;;;;;;5043821;28;20773;-77
2023/07/31 10:00:10;;;;;;;1.40;1.03;;;16.50;99.90;;;;;;5041684;28;20227;-77
2023/07/31 10:02:41;;;;;;;1.20;1.10;;;16.60;99.90;;;;;;5044478;28;20242;-77
2023/07/31 10:05:09;;;;;;;1.23;1.03;;;16.80;99.90;;;;;;5058156;28;20227;-78
2023/07/31 10:07:39;;;;;;;1.83;1.00;;;16.90;99.90;;;;;;5037903;28;20223;-79
2023/07/31 10:10:09;;;;;;;1.00;0.90;;;17.00;99.90;;;;;;5038203;28;20227;-78
2023/07/31 10:12:36;;;;;;;1.30;1.00;;;17.10;99.90;;;;;;5041190;28;20219;-78
2023/07/31 10:15:06;;;;;;;0.93;0.80;;;17.10;99.90;;;;;;5042973;28;20890;-77
2023/07/31 10:17:36;;;;;;;1.23;0.83;;;17.20;99.90;;;;;;5057799;28;20233;-78
2023/07/31 10:20:04;;;;;;;1.37;0.80;;;17.30;99.90;;;;;;5043841;28;20316;-79
2023/07/31 10:22:32;;;;;;;1.30;0.97;;;17.30;99.90;;;;;;5058637;28;20227;-78
2023/07/31 10:25:02;;;;;;;0.80;0.80;;;17.30;99.90;;;;;;5041739;28;20242;-78
2023/07/31 10:27:29;;;;;;;1.20;1.00;;;17.30;99.90;;;;;;5043951;28;20235;-80
2023/07/31 10:29:58;;;;;;;1.60;0.80;;;17.40;99.90;;;;;;5068634;28;20305;-79
2023/07/31 10:32:28;;;;;;;0.80;0.77;;;17.40;99.90;;;;;;5039158;28;20258;-79
2023/07/31 10:34:55;;;;;;;2.33;1.10;;;17.40;99.90;;;;;;5040852;28;20268;-79
2023/07/31 10:37:23;;;;;;;1.60;1.00;;;17.40;99.90;;;;;;5045095;28;20229;-79
2023/07/31 10:39:58;;;;;;;0.97;0.80;;;17.40;99.90;;;;;;5082074;23;20232;-79
2023/07/31 10:42:29;;;;;;;1.37;0.97;;;17.40;99.90;;;;;;5076778;28;20261;-79
2023/07/31 10:44:59;;;;;;;1.07;0.90;;;17.50;99.90;;;;;;5073846;28;20357;-79
2023/07/31 10:47:27;;;;;;;1.27;0.80;;;17.50;99.90;;;;;;5078929;28;20271;-79
2023/07/31 10:50:11;;;;;;;0.80;0.60;;;17.40;99.90;;;;;;5079613;28;20226;-80
2023/07/31 10:52:38;;;;;;;0.83;0.60;;;17.50;99.90;;;;;;5062433;28;20780;-79
2023/07/31 10:55:31;;;;;;;0.70;0.70;;;17.40;99.90;;;;;;5072004;28;20525;-80
2023/07/31 10:57:59;;;;;;;0.67;0.60;;;17.40;99.90;;;;;;5081244;28;20225;-80
2023/07/31 11:00:27;;;;;;;1.00;0.80;;;17.40;99.90;;;;;;5082370;28;20227;-79
2023/07/31 11:03:00;;;;;;;1.23;1.03;;;17.30;99.90;;;;;;5086112;28;20792;-80
2023/07/31 11:05:47;;;;;;;3.77;2.67;;;17.30;99.90;;;;;;5062613;28;20257;-80
2023/07/31 11:08:16;;;;;;;2.00;0.90;;;17.30;99.90;;;;;;5059333;28;20227;-80
2023/07/31 11:10:44;;;;;;;1.30;1.20;;;17.30;99.90;;;;;;5084630;28;20215;-80
2023/07/31 11:13:10;;;;;;;1.40;1.30;;;17.30;99.90;;;;;;5079450;28;20218;-79
2023/07/31 11:15:37;;;;;;;1.50;1.40;;;17.20;99.90;;;;;;5083865;28;20230;-80
2023/07/31 11:18:07;;;;;;;1.50;1.40;;;17.20;99.90;;;;;;5067527;28;20582;-79
2023/07/31 11:20:35;;;;;;;1.20;1.10;;;17.10;99.90;;;;;;5067186;28;20808;-80
2023/07/31 11:23:02;;;;;;;2.80;1.50;;;17.10;99.90;;;;;;5082286;28;20225;-80
2023/07/31 11:25:31;;;;;;;1.30;1.20;;;17.00;99.90;;;;;;5082023;28;20267;-80
2023/07/31 11:27:58;;;;;;;1.00;1.00;;;17.00;99.90;;;;;;5072824;28;20300;-79
2023/07/31 11:30:25;;;;;;;1.30;1.20;;;17.00;99.90;;;;;;5075565;28;20522;-80
2023/07/31 11:32:51;;;;;;;3.13;2.30;;;17.00;99.90;;;;;;5079080;28;20313;-79
2023/07/31 11:35:20;;;;;;;4.10;2.30;;;17.00;99.90;;;;;;5056874;28;20764;-79
2023/07/31 11:37:46;;;;;;;3.37;2.50;;;17.10;99.90;;;;;;5079606;28;20822;-79
2023/07/31 11:40:13;;;;;;;3.70;3.03;;;17.10;99.90;;;;;;5076270;28;20613;-79
2023/07/31 11:42:40;;;;;;;5.10;3.73;;;17.20;99.90;;;;;;5062247;28;20233;-79
2023/07/31 11:45:08;;;;;;;8.00;4.50;;;17.30;99.90;;;;;;5063051;28;20229;-79
2023/07/31 11:47:35;;;;;;;7.57;5.77;;;17.30;99.90;;;;;;5079654;28;20218;-80
2023/07/31 11:50:04;;;;;;;6.40;4.00;;;17.30;99.90;;;;;;5058984;28;20241;-79
2023/07/31 11:52:35;;;;;;;6.70;4.53;;;17.30;99.90;;;;;;5062471;28;20291;-79
2023/07/31 11:55:02;;;;;;;5.60;4.20;;;17.30;99.90;;;;;;5060354;28;20226;-79
2023/07/31 11:57:29;;;;;;;5.37;3.47;;;17.20;99.90;;;;;;5078188;28;20729;-79
2023/07/31 11:59:57;;;;;;;3.73;3.33;;;17.20;99.90;;;;;;5077651;28;20648;-79
2023/07/31 12:02:24;;;;;;;4.07;3.23;;;17.20;99.90;;;;;;5079247;28;20234;-79
2023/07/31 12:04:51;;;;;;;3.73;3.33;;;17.10;99.90;;;;;;5080994;28;20228;-79
2023/07/31 12:07:18;;;;;;;2.70;2.33;;;17.10;99.90;;;;;;5065358;28;20374;-80
2023/07/31 12:09:56;;;;;;;2.50;1.80;;;17.10;99.90;;;;;;5064360;28;20586;-80
2023/07/31 12:12:24;;;;;;;1.97;1.30;;;17.10;99.90;;;;;;5080905;28;20254;-80
2023/07/31 12:14:51;;;;;;;2.50;1.20;;;17.10;99.90;;;;;;5083439;28;20246;-81
2023/07/31 12:17:20;;;;;;;1.30;1.00;;;17.00;99.90;;;;;;5084254;28;20234;-80
2023/07/31 12:19:49;;;;;;;1.40;1.00;;;17.00;99.90;;;;;;5066350;28;20226;-80
2023/07/31 12:22:16;;;;;;;2.40;1.57;;;16.90;99.90;;;;;;5080346;28;20234;-81
2023/07/31 12:24:45;;;;;;;2.67;1.37;;;16.80;99.90;;;;;;5066228;28;20222;-80
2023/07/31 12:27:14;;;;;;;14.00;8.67;;;16.70;99.90;;;;;;5080597;28;20240;-80
2023/07/31 12:29:44;;;;;;;2.93;1.90;;;16.60;99.90;;;;;;5078525;28;20229;-80
2023/07/31 12:32:24;;;;;;;13.40;6.47;;;16.60;99.90;;;;;;5079315;28;20651;-80
2023/07/31 12:34:51;;;;;;;15.07;8.63;;;16.50;99.90;;;;;;5061803;28;20233;-79
2023/07/31 12:37:18;;;;;;;1.30;0.83;;;16.50;99.90;;;;;;5081625;28;20232;-79
2023/07/31 12:39:45;;;;;;;0.90;0.50;;;16.50;99.90;;;;;;5083289;28;20229;-79
2023/07/31 12:42:12;;;;;;;0.53;0.30;;;16.40;99.90;;;;;;5063134;28;20682;-80
2023/07/31 12:44:39;;;;;;;0.43;0.40;;;16.40;99.90;;;;;;5065293;28;20733;-80
2023/07/31 12:47:06;;;;;;;0.73;0.30;;;16.30;99.90;;;;;;5082002;28;20220;-80
2023/07/31 12:49:33;;;;;;;8.13;0.83;;;16.30;99.90;;;;;;5080645;28;20232;-79
2023/07/31 12:51:59;;;;;;;1.10;0.40;;;16.30;99.90;;;;;;5077361;28;20221;-80